Antoine, Arkansas
Current Conditions -  °F | °C
As of 8:56 PM on Saturday 22 Nov 2014 (Local Time) from KADF Reporting Station
Overcast Overcast  
Wind Chill: 62°   Ceiling: 3000
Heat Index: 62°   Visibility: 10mi
Dew Point: 58°   Wind: 0mph
Humidity: 87%   Direction: NA
Pressure: 29.92"   Gusts: NA
Location:  34.04°N, 93.42°W
Report Text: KADF 230256Z AUTO 00000KT 10SM OVC030 17/14 A2992 RMK AO2 58014 T01660144 SLP147
Loading
Personal Weather Stations






























Interactive Weather Map New forecast layout! Learn more

10-Day Weather Forecast

Advertisements
Track Severe Weather on mobile